Marion, South Dakota
Current Conditions -  °F | °C
As of 11:56 PM on Saturday 25 Oct 2014 (Local Time) from KFSD Reporting Station
Clear Clear  
Wind Chill: 43°   Ceiling: Unl
Heat Index: 43°   Visibility: 10mi
Dew Point: 34°   Wind: 3mph
Humidity: 71%   Direction: 80°E
Pressure: 30.03"   Gusts: NA
Location:  43.42°N, 97.26°W
Report Text: KFSD 260456Z 08003KT 10SM CLR 06/01 A3003 RMK AO2 SLP174 T00610011
Loading
Personal Weather Stations






























Interactive Weather Map
Tropical Storm Tracking
New forecast layout! Learn more

10-Day Weather Forecast

Advertisements
Track Severe Weather on mobile